sensor_id;sensor_type;location;lat;lon;timestamp;pressure;altitude;pressure_sealevel;temperature;humidity
12913;BME280;6524;51.368;11.984;2022-09-13T04:02:37;99750.25;;;16.06;88.08
12913;BME280;6524;51.368;11.984;2022-09-13T04:07:37;99761.00;;;16.16;87.84
12913;BME280;6524;51.368;11.984;2022-09-13T04:12:37;99766.22;;;16.30;87.36
12913;BME280;6524;51.368;11.984;2022-09-13T04:17:40;99757.06;;;16.36;86.52
12913;BME280;6524;51.368;11.984;2022-09-13T04:22:40;99760.66;;;16.48;86.13
12913;BME280;6524;51.368;11.984;2022-09-13T04:27:41;99762.16;;;16.52;85.38
12913;BME280;6524;51.368;11.984;2022-09-13T04:32:42;99757.50;;;16.42;86.53
12913;BME280;6524;51.368;11.984;2022-09-13T04:37:44;99747.19;;;16.39;86.23
12913;BME280;6524;51.368;11.984;2022-09-13T04:42:44;99752.47;;;16.52;85.68
12913;BME280;6524;51.368;11.984;2022-09-13T04:47:50;99755.19;;;16.51;86.11
12913;BME280;6524;51.368;11.984;2022-09-13T04:52:53;99752.47;;;16.65;85.91
12913;BME280;6524;51.368;11.984;2022-09-13T04:57:54;99742.81;;;16.78;84.45
12913;BME280;6524;51.368;11.984;2022-09-13T05:02:55;99739.22;;;16.92;83.87
12913;BME280;6524;51.368;11.984;2022-09-13T05:07:56;99738.16;;;16.95;83.75
12913;BME280;6524;51.368;11.984;2022-09-13T05:12:56;99736.81;;;17.02;83.04
12913;BME280;6524;51.368;11.984;2022-09-13T05:17:57;99731.63;;;17.13;83.04
12913;BME280;6524;51.368;11.984;2022-09-13T05:22:57;99724.78;;;17.10;83.19
12913;BME280;6524;51.368;11.984;2022-09-13T05:27:57;99731.78;;;17.35;82.43
12913;BME280;6524;51.368;11.984;2022-09-13T05:32:58;99743.75;;;17.65;81.32
12913;BME280;6524;51.368;11.984;2022-09-13T05:37:58;99739.28;;;17.78;80.69
12913;BME280;6524;51.368;11.984;2022-09-13T05:42:58;99735.75;;;17.91;80.39
12913;BME280;6524;51.368;11.984;2022-09-13T05:47:58;99739.47;;;18.23;78.98
12913;BME280;6524;51.368;11.984;2022-09-13T05:52:59;99727.53;;;18.42;78.13
12913;BME280;6524;51.368;11.984;2022-09-13T05:58:03;99719.16;;;18.48;77.86
12913;BME280;6524;51.368;11.984;2022-09-13T06:03:03;99729.50;;;18.62;77.87
12913;BME280;6524;51.368;11.984;2022-09-13T06:08:03;99749.19;;;18.69;77.96
12913;BME280;6524;51.368;11.984;2022-09-13T06:13:04;99755.44;;;18.68;80.44
12913;BME280;6524;51.368;11.984;2022-09-13T06:18:04;99758.44;;;18.64;82.87
12913;BME280;6524;51.368;11.984;2022-09-13T06:23:05;99758.00;;;18.35;85.59
12913;BME280;6524;51.368;11.984;2022-09-13T06:28:05;99748.50;;;17.97;86.37
12913;BME280;6524;51.368;11.984;2022-09-13T06:33:05;99730.06;;;18.08;87.71
12913;BME280;6524;51.368;11.984;2022-09-13T06:38:06;99734.78;;;17.92;89.02
12913;BME280;6524;51.368;11.984;2022-09-13T06:43:06;99727.91;;;18.02;89.01
12913;BME280;6524;51.368;11.984;2022-09-13T06:48:06;99734.56;;;17.95;91.81
12913;BME280;6524;51.368;11.984;2022-09-13T06:53:07;99741.84;;;18.15;90.99
12913;BME280;6524;51.368;11.984;2022-09-13T06:58:07;99721.22;;;18.09;93.28
12913;BME280;6524;51.368;11.984;2022-09-13T07:03:07;99724.00;;;17.95;93.21
12913;BME280;6524;51.368;11.984;2022-09-13T07:08:08;99728.31;;;18.20;91.49
12913;BME280;6524;51.368;11.984;2022-09-13T07:13:08;99730.25;;;18.29;91.69
12913;BME280;6524;51.368;11.984;2022-09-13T07:18:08;99720.22;;;18.34;89.91
12913;BME280;6524;51.368;11.984;2022-09-13T07:23:09;99726.56;;;18.32;89.22
12913;BME280;6524;51.368;11.984;2022-09-13T07:28:09;99713.16;;;18.46;89.31
12913;BME280;6524;51.368;11.984;2022-09-13T07:33:09;99720.97;;;18.47;88.95
12913;BME280;6524;51.368;11.984;2022-09-13T07:38:09;99728.81;;;18.71;87.66
12913;BME280;6524;51.368;11.984;2022-09-13T07:43:10;99732.22;;;18.96;86.96
12913;BME280;6524;51.368;11.984;2022-09-13T07:48:10;99733.41;;;19.26;86.53
12913;BME280;6524;51.368;11.984;2022-09-13T07:53:10;99722.59;;;19.29;84.86
12913;BME280;6524;51.368;11.984;2022-09-13T07:58:11;99719.72;;;19.43;83.07
12913;BME280;6524;51.368;11.984;2022-09-13T08:03:11;99739.88;;;19.67;81.72
12913;BME280;6524;51.368;11.984;2022-09-13T08:08:11;99740.59;;;19.69;82.85
12913;BME280;6524;51.368;11.984;2022-09-13T08:13:11;99741.03;;;19.74;81.44
12913;BME280;6524;51.368;11.984;2022-09-13T08:18:12;99732.28;;;20.05;79.15
12913;BME280;6524;51.368;11.984;2022-09-13T08:23:13;99729.84;;;20.14;78.20
12913;BME280;6524;51.368;11.984;2022-09-13T08:28:15;99729.16;;;20.32;77.10
12913;BME280;6524;51.368;11.984;2022-09-13T08:33:16;99739.53;;;20.56;76.98
12913;BME280;6524;51.368;11.984;2022-09-13T08:38:16;99741.06;;;20.80;76.40
12913;BME280;6524;51.368;11.984;2022-09-13T08:43:40;99738.19;;;20.62;75.67
12913;BME280;6524;51.368;11.984;2022-09-13T08:48:43;99745.19;;;20.94;75.04
12913;BME280;6524;51.368;11.984;2022-09-13T08:53:47;99741.34;;;21.08;73.71
12913;BME280;6524;51.368;11.984;2022-09-13T08:59:12;99741.84;;;21.32;73.13
12913;BME280;6524;51.368;11.984;2022-09-13T09:09:26;99722.56;;;21.61;70.99
12913;BME280;6524;51.368;11.984;2022-09-13T09:14:32;99722.31;;;23.08;66.43
12913;BME280;6524;51.368;11.984;2022-09-13T09:19:41;99728.69;;;25.54;57.52
12913;BME280;6524;51.368;11.984;2022-09-13T09:24:47;99728.59;;;26.79;52.91
12913;BME280;6524;51.368;11.984;2022-09-13T09:29:53;99720.78;;;26.03;54.99
12913;BME280;6524;51.368;11.984;2022-09-13T09:40:04;99714.78;;;26.01;54.39
12913;BME280;6524;51.368;11.984;2022-09-13T09:45:27;99709.25;;;26.27;53.30
12913;BME280;6524;51.368;11.984;2022-09-13T09:50:44;99704.41;;;27.19;49.38
12913;BME280;6524;51.368;11.984;2022-09-13T09:55:54;99704.88;;;27.23;49.63
12913;BME280;6524;51.368;11.984;2022-09-13T10:00:57;99702.19;;;27.31;49.91
12913;BME280;6524;51.368;11.984;2022-09-13T10:11:05;99687.66;;;28.64;45.16
12913;BME280;6524;51.368;11.984;2022-09-13T10:16:24;99690.31;;;27.57;47.03
12913;BME280;6524;51.368;11.984;2022-09-13T10:21:25;99674.31;;;26.45;50.49
12913;BME280;6524;51.368;11.984;2022-09-13T10:26:26;99682.94;;;25.49;52.46
12913;BME280;6524;51.368;11.984;2022-09-13T10:31:30;99675.50;;;24.84;54.74
12913;BME280;6524;51.368;11.984;2022-09-13T10:36:34;99681.09;;;24.47;55.29
12913;BME280;6524;51.368;11.984;2022-09-13T10:41:38;99679.13;;;24.49;55.38
12913;BME280;6524;51.368;11.984;2022-09-13T10:46:41;99673.13;;;24.47;55.06
12913;BME280;6524;51.368;11.984;2022-09-13T10:51:42;99678.59;;;24.72;55.01
12913;BME280;6524;51.368;11.984;2022-09-13T10:56:43;99672.31;;;24.81;54.85
12913;BME280;6524;51.368;11.984;2022-09-13T11:07:13;99659.94;;;26.46;50.57
12913;BME280;6524;51.368;11.984;2022-09-13T11:23:13;99640.28;;;26.15;51.17
12913;BME280;6524;51.368;11.984;2022-09-13T11:34:16;99625.41;;;25.79;51.94
12913;BME280;6524;51.368;11.984;2022-09-13T11:39:44;99621.47;;;26.72;49.21
12913;BME280;6524;51.368;11.984;2022-09-13T11:44:56;99612.97;;;27.62;46.33
12913;BME280;6524;51.368;11.984;2022-09-13T11:56:00;99616.81;;;27.36;47.42
12913;BME280;6524;51.368;11.984;2022-09-13T12:01:06;99622.41;;;26.79;49.80
12913;BME280;6524;51.368;11.984;2022-09-13T12:06:30;99623.84;;;26.50;50.44
12913;BME280;6524;51.368;11.984;2022-09-13T12:11:35;99609.75;;;25.93;50.97
12913;BME280;6524;51.368;11.984;2022-09-13T12:16:45;99600.56;;;25.87;51.37
12913;BME280;6524;51.368;11.984;2022-09-13T12:21:48;99598.69;;;25.63;52.01
12913;BME280;6524;51.368;11.984;2022-09-13T12:32:01;99597.19;;;25.77;51.69
12913;BME280;6524;51.368;11.984;2022-09-13T12:37:13;99596.53;;;25.99;51.47
12913;BME280;6524;51.368;11.984;2022-09-13T12:52:56;99578.41;;;26.42;51.69
12913;BME280;6524;51.368;11.984;2022-09-13T12:58:14;99577.75;;;26.32;51.63
12913;BME280;6524;51.368;11.984;2022-09-13T13:03:17;99576.09;;;26.23;51.05
12913;BME280;6524;51.368;11.984;2022-09-13T13:13:37;99568.91;;;26.87;50.23
12913;BME280;6524;51.368;11.984;2022-09-13T13:23:41;99559.06;;;28.77;44.94
12913;BME280;6524;51.368;11.984;2022-09-13T13:33:47;99560.78;;;30.13;41.83
12913;BME280;6524;51.368;11.984;2022-09-13T13:38:49;99552.97;;;30.18;41.48
12913;BME280;6524;51.368;11.984;2022-09-13T13:43:50;99546.28;;;30.42;41.44
12913;BME280;6524;51.368;11.984;2022-09-13T13:48:50;99548.47;;;30.26;41.41
12913;BME280;6524;51.368;11.984;2022-09-13T13:54:04;99542.56;;;29.81;42.41
12913;BME280;6524;51.368;11.984;2022-09-13T13:59:29;99542.69;;;28.57;44.67
12913;BME280;6524;51.368;11.984;2022-09-13T14:04:51;99533.63;;;27.99;46.32
12913;BME280;6524;51.368;11.984;2022-09-13T14:10:08;99516.91;;;27.59;47.18
12913;BME280;6524;51.368;11.984;2022-09-13T14:15:23;99523.22;;;27.20;48.85
12913;BME280;6524;51.368;11.984;2022-09-13T14:20:26;99520.78;;;26.79;49.54
12913;BME280;6524;51.368;11.984;2022-09-13T14:25:27;99519.56;;;26.59;50.28
12913;BME280;6524;51.368;11.984;2022-09-13T14:30:31;99513.91;;;26.45;50.71
12913;BME280;6524;51.368;11.984;2022-09-13T14:35:36;99512.28;;;26.28;51.23
12913;BME280;6524;51.368;11.984;2022-09-13T14:40:37;99508.94;;;26.26;51.86
12913;BME280;6524;51.368;11.984;2022-09-13T14:45:39;99511.09;;;26.39;52.31
12913;BME280;6524;51.368;11.984;2022-09-13T14:50:47;99509.41;;;26.38;51.96
12913;BME280;6524;51.368;11.984;2022-09-13T14:55:51;99504.81;;;26.23;52.05
12913;BME280;6524;51.368;11.984;2022-09-13T15:01:03;99504.28;;;26.20;52.44
12913;BME280;6524;51.368;11.984;2022-09-13T15:06:05;99500.63;;;26.21;52.16
12913;BME280;6524;51.368;11.984;2022-09-13T15:11:12;99492.91;;;26.26;52.44
12913;BME280;6524;51.368;11.984;2022-09-13T15:16:30;99494.41;;;26.28;52.85
12913;BME280;6524;51.368;11.984;2022-09-13T15:21:34;99495.56;;;26.34;52.32
12913;BME280;6524;51.368;11.984;2022-09-13T15:26:35;99493.34;;;26.46;52.15
12913;BME280;6524;51.368;11.984;2022-09-13T15:31:36;99497.88;;;26.45;52.56
12913;BME280;6524;51.368;11.984;2022-09-13T15:36:36;99508.47;;;26.22;54.47
12913;BME280;6524;51.368;11.984;2022-09-13T15:41:38;99509.53;;;26.05;55.19
12913;BME280;6524;51.368;11.984;2022-09-13T15:46:50;99506.72;;;25.98;55.81
12913;BME280;6524;51.368;11.984;2022-09-13T15:51:59;99513.91;;;25.81;56.34
12913;BME280;6524;51.368;11.984;2022-09-13T15:57:00;99515.09;;;25.54;56.73
12913;BME280;6524;51.368;11.984;2022-09-13T16:02:11;99511.09;;;25.58;57.29
12913;BME280;6524;51.368;11.984;2022-09-13T16:07:14;99517.09;;;25.36;57.68
12913;BME280;6524;51.368;11.984;2022-09-13T16:12:14;99514.41;;;25.44;57.47
12913;BME280;6524;51.368;11.984;2022-09-13T16:17:23;99524.44;;;25.34;58.06
12913;BME280;6524;51.368;11.984;2022-09-13T16:22:23;99524.25;;;25.44;57.81
12913;BME280;6524;51.368;11.984;2022-09-13T16:27:24;99515.75;;;25.32;58.27
12913;BME280;6524;51.368;11.984;2022-09-13T16:32:27;99510.41;;;25.32;58.52
12913;BME280;6524;51.368;11.984;2022-09-13T16:37:27;99504.91;;;25.25;58.92
12913;BME280;6524;51.368;11.984;2022-09-13T16:42:28;99507.38;;;25.10;59.24
12913;BME280;6524;51.368;11.984;2022-09-13T16:47:28;99506.00;;;24.90;60.03
12913;BME280;6524;51.368;11.984;2022-09-13T16:52:29;99508.28;;;24.68;61.03
12913;BME280;6524;51.368;11.984;2022-09-13T16:57:30;99510.09;;;24.60;61.95
12913;BME280;6524;51.368;11.984;2022-09-13T17:02:30;99511.47;;;24.38;62.77
12913;BME280;6524;51.368;11.984;2022-09-13T17:07:31;99515.06;;;24.20;63.60
12913;BME280;6524;51.368;11.984;2022-09-13T17:12:32;99514.34;;;24.10;64.18
12913;BME280;6524;51.368;11.984;2022-09-13T17:17:33;99520.94;;;23.98;65.87
12913;BME280;6524;51.368;11.984;2022-09-13T17:22:35;99520.50;;;23.85;66.68
12913;BME280;6524;51.368;11.984;2022-09-13T17:27:36;99522.19;;;23.68;67.21
12913;BME280;6524;51.368;11.984;2022-09-13T17:32:37;99510.34;;;23.62;67.55
12913;BME280;6524;51.368;11.984;2022-09-13T17:37:37;99511.88;;;23.47;68.00
12913;BME280;6524;51.368;11.984;2022-09-13T17:42:37;99510.44;;;23.35;69.20
12913;BME280;6524;51.368;11.984;2022-09-13T17:47:38;99511.53;;;23.24;68.92
12913;BME280;6524;51.368;11.984;2022-09-13T17:52:38;99511.69;;;23.04;69.88
12913;BME280;6524;51.368;11.984;2022-09-13T17:57:38;99508.03;;;23.05;69.46
12913;BME280;6524;51.368;11.984;2022-09-13T18:02:43;99517.66;;;22.89;69.95
12913;BME280;6524;51.368;11.984;2022-09-13T18:07:43;99511.16;;;22.73;71.49
12913;BME280;6524;51.368;11.984;2022-09-13T18:12:44;99516.88;;;22.78;71.08
12913;BME280;6524;51.368;11.984;2022-09-13T18:17:44;99513.34;;;22.60;71.78
12913;BME280;6524;51.368;11.984;2022-09-13T18:22:44;99512.75;;;22.66;72.29
12913;BME280;6524;51.368;11.984;2022-09-13T18:27:44;99516.31;;;22.57;73.44
12913;BME280;6524;51.368;11.984;2022-09-13T18:32:45;99520.31;;;22.61;73.26
12913;BME280;6524;51.368;11.984;2022-09-13T18:37:45;99522.56;;;22.56;73.58
12913;BME280;6524;51.368;11.984;2022-09-13T18:42:45;99532.44;;;22.46;74.06
12913;BME280;6524;51.368;11.984;2022-09-13T18:47:46;99527.53;;;22.51;73.88
12913;BME280;6524;51.368;11.984;2022-09-13T18:52:49;99536.06;;;22.45;73.75
12913;BME280;6524;51.368;11.984;2022-09-13T18:57:50;99537.94;;;22.34;74.14
12913;BME280;6524;51.368;11.984;2022-09-13T19:02:51;99538.69;;;22.07;75.52
12913;BME280;6524;51.368;11.984;2022-09-13T19:07:52;99541.22;;;21.99;75.91
12913;BME280;6524;51.368;11.984;2022-09-13T19:12:52;99536.91;;;21.98;76.70
12913;BME280;6524;51.368;11.984;2022-09-13T19:17:53;99540.97;;;21.92;77.28
12913;BME280;6524;51.368;11.984;2022-09-13T19:22:53;99551.63;;;21.73;77.53
12913;BME280;6524;51.368;11.984;2022-09-13T19:27:54;99545.78;;;21.60;77.95
12913;BME280;6524;51.368;11.984;2022-09-13T19:32:54;99548.84;;;21.45;78.77
12913;BME280;6524;51.368;11.984;2022-09-13T19:37:54;99553.84;;;21.29;79.56
12913;BME280;6524;51.368;11.984;2022-09-13T19:42:55;99563.34;;;21.22;79.46
12913;BME280;6524;51.368;11.984;2022-09-13T19:47:55;99562.19;;;21.15;79.76
12913;BME280;6524;51.368;11.984;2022-09-13T19:52:56;99566.66;;;21.05;81.10
12913;BME280;6524;51.368;11.984;2022-09-13T19:57:56;99576.13;;;20.97;81.41
12913;BME280;6524;51.368;11.984;2022-09-13T20:02:57;99577.25;;;21.05;81.33
12913;BME280;6524;51.368;11.984;2022-09-13T20:07:59;99572.94;;;21.03;81.09
12913;BME280;6524;51.368;11.984;2022-09-13T20:12:59;99566.19;;;20.90;81.38
12913;BME280;6524;51.368;11.984;2022-09-13T20:17:59;99565.38;;;20.89;81.71
12913;BME280;6524;51.368;11.984;2022-09-13T20:23:01;99560.59;;;20.83;82.00
12913;BME280;6524;51.368;11.984;2022-09-13T20:28:10;99557.63;;;20.67;83.27
12913;BME280;6524;51.368;11.984;2022-09-13T20:33:14;99559.31;;;20.68;82.68
12913;BME280;6524;51.368;11.984;2022-09-13T20:38:17;99550.13;;;20.72;82.41
12913;BME280;6524;51.368;11.984;2022-09-13T20:43:18;99557.63;;;20.67;83.36
12913;BME280;6524;51.368;11.984;2022-09-13T20:48:19;99551.53;;;20.76;82.92
12913;BME280;6524;51.368;11.984;2022-09-13T20:53:19;99553.75;;;20.71;84.15
12913;BME280;6524;51.368;11.984;2022-09-13T20:58:20;99556.03;;;20.85;83.74
12913;BME280;6524;51.368;11.984;2022-09-13T21:03:21;99548.53;;;21.00;83.81
12913;BME280;6524;51.368;11.984;2022-09-13T21:08:23;99551.25;;;20.79;85.12
12913;BME280;6524;51.368;11.984;2022-09-13T21:13:45;99554.94;;;20.97;84.76
12913;BME280;6524;51.368;11.984;2022-09-13T21:18:47;99555.22;;;21.04;83.78
12913;BME280;6524;51.368;11.984;2022-09-13T21:23:48;99560.25;;;21.07;84.33
12913;BME280;6524;51.368;11.984;2022-09-13T21:28:48;99562.75;;;21.09;84.29
12913;BME280;6524;51.368;11.984;2022-09-13T21:33:57;99568.88;;;20.99;85.05
12913;BME280;6524;51.368;11.984;2022-09-13T21:38:58;99573.06;;;21.02;85.03
12913;BME280;6524;51.368;11.984;2022-09-13T21:44:00;99576.97;;;21.08;85.12
12913;BME280;6524;51.368;11.984;2022-09-13T21:49:04;99573.63;;;21.06;84.67
12913;BME280;6524;51.368;11.984;2022-09-13T21:54:07;99575.88;;;21.00;85.05
12913;BME280;6524;51.368;11.984;2022-09-13T21:59:14;99561.88;;;20.89;85.30
12913;BME280;6524;51.368;11.984;2022-09-13T22:04:19;99560.63;;;21.02;85.50
12913;BME280;6524;51.368;11.984;2022-09-13T22:09:23;99558.25;;;20.99;85.92
12913;BME280;6524;51.368;11.984;2022-09-13T22:14:25;99560.50;;;20.85;86.74
12913;BME280;6524;51.368;11.984;2022-09-13T22:19:26;99558.84;;;21.03;86.32
12913;BME280;6524;51.368;11.984;2022-09-13T22:24:29;99567.47;;;20.95;85.80
12913;BME280;6524;51.368;11.984;2022-09-13T22:29:31;99569.56;;;20.92;85.92
12913;BME280;6524;51.368;11.984;2022-09-13T22:34:31;99565.09;;;21.02;85.23
12913;BME280;6524;51.368;11.984;2022-09-13T22:39:33;99559.97;;;21.00;85.61
12913;BME280;6524;51.368;11.984;2022-09-13T22:44:34;99565.94;;;21.02;85.77
12913;BME280;6524;51.368;11.984;2022-09-13T22:49:34;99556.88;;;20.95;85.89
12913;BME280;6524;51.368;11.984;2022-09-13T22:54:34;99563.88;;;21.06;86.12
12913;BME280;6524;51.368;11.984;2022-09-13T22:59:37;99560.81;;;21.11;85.77
12913;BME280;6524;51.368;11.984;2022-09-13T23:04:38;99545.44;;;20.95;86.51
12913;BME280;6524;51.368;11.984;2022-09-13T23:09:38;99540.69;;;20.98;86.65
12913;BME280;6524;51.368;11.984;2022-09-13T23:14:38;99539.84;;;20.88;86.77
12913;BME280;6524;51.368;11.984;2022-09-13T23:19:38;99533.00;;;20.76;86.92
12913;BME280;6524;51.368;11.984;2022-09-13T23:24:39;99547.59;;;20.61;87.69
12913;BME280;6524;51.368;11.984;2022-09-13T23:29:39;99551.22;;;20.60;87.51
12913;BME280;6524;51.368;11.984;2022-09-13T23:34:41;99546.78;;;20.39;88.52
12913;BME280;6524;51.368;11.984;2022-09-13T23:39:41;99548.72;;;20.37;88.58
12913;BME280;6524;51.368;11.984;2022-09-13T23:44:42;99529.31;;;20.27;89.90
12913;BME280;6524;51.368;11.984;2022-09-13T23:49:42;99529.47;;;20.35;88.88
12913;BME280;6524;51.368;11.984;2022-09-13T23:54:43;99529.94;;;20.40;88.57
12913;BME280;6524;51.368;11.984;2022-09-13T23:59:44;99524.63;;;20.40;88.77
